Time;durP1;ratioP1;P1;durP2;ratioP2;P2;SDS_P1;SDS_P2;PMS_P1;PMS_P2;Temp;Humidity;BMP_temperature;BMP_pressure;BME280_temperature;BME280_humidity;BME280_pressure;Samples;Min_cycle;Max_cycle;Signal;HPM_P1;HPM_P2
2021/06/15 00:01:38;;;;;;;4.75;3.88;;;;;;;13.52;97.38;96790.25;4962821;28;20513;-70
2021/06/15 00:04:04;;;;;;;8.43;4.40;;;;;;;13.52;99.71;96793.03;4964666;28;20023;-69
2021/06/15 00:06:29;;;;;;;4.40;3.83;;;;;;;12.63;100.00;96645.81;4964472;28;20039;-70
2021/06/15 00:08:55;;;;;;;6.18;3.97;;;;;;;12.77;99.24;96679.19;4963096;28;20035;-70
2021/06/15 00:11:20;;;;;;;6.28;5.18;;;;;;;13.34;99.05;96767.16;4964683;28;20437;-70
2021/06/15 00:13:46;;;;;;;6.47;4.40;;;;;;;13.00;100.00;96732.53;4983402;28;20041;-70
2021/06/15 00:16:12;;;;;;;6.82;4.60;;;;;;;13.33;100.00;96787.81;4966104;28;20050;-70
2021/06/15 00:18:37;;;;;;;8.27;4.72;;;;;;;12.81;100.00;96713.38;4967614;28;20111;-69
2021/06/15 00:21:03;;;;;;;7.15;4.95;;;;;;;13.15;100.00;96795.31;4966003;28;20615;-68
2021/06/15 00:23:28;;;;;;;7.30;4.85;;;;;;;13.16;100.00;96785.81;4967929;28;20529;-70
2021/06/15 00:25:54;;;;;;;7.82;4.72;;;;;;;13.19;100.00;96782.22;4965999;28;20047;-70
2021/06/15 00:28:19;;;;;;;7.90;4.60;;;;;;;13.26;100.00;96773.88;4967724;28;20484;-70
2021/06/15 00:30:46;;;;;;;6.30;4.40;;;;;;;12.72;100.00;96698.25;4967544;28;20042;-70
2021/06/15 00:33:11;;;;;;;7.20;4.72;;;;;;;12.86;98.45;96721.34;4982391;28;20031;-70
2021/06/15 00:35:37;;;;;;;7.53;4.45;;;;;;;12.80;99.26;96742.38;4965811;28;20101;-69
2021/06/15 00:38:03;;;;;;;7.45;4.32;;;;;;;12.58;99.00;96676.78;4967693;28;20069;-70
2021/06/15 00:40:29;;;;;;;6.75;4.35;;;;;;;13.01;99.01;96775.81;4965648;28;20042;-70
2021/06/15 00:42:54;;;;;;;6.10;4.55;;;;;;;13.18;99.68;96761.16;4967429;28;20052;-70
2021/06/15 00:45:28;;;;;;;5.05;4.18;;;;;;;12.99;99.91;96764.25;4967052;28;20031;-69
2021/06/15 00:47:54;;;;;;;;;;;;;;;13.05;99.05;96762.72;4968208;28;20023;-70
2021/06/15 00:50:21;;;;;;;5.68;4.53;;;;;;;12.98;100.00;96757.09;4997843;28;19925;-70
2021/06/15 00:52:48;;;;;;;5.72;4.15;;;;;;;12.89;99.85;96751.13;4967282;28;20117;-70
2021/06/15 00:55:13;;;;;;;9.68;4.65;;;;;;;12.87;99.96;96745.16;4964993;28;20070;-68
2021/06/15 00:57:39;;;;;;;5.28;3.95;;;;;;;12.77;99.33;96731.22;4965569;28;20062;-68
2021/06/15 01:00:06;;;;;;;5.00;4.40;;;;;;;12.86;99.79;96760.25;4967186;28;20469;-71
2021/06/15 01:02:32;;;;;;;8.15;4.72;;;;;;;12.82;100.00;96770.56;4967853;28;20042;-67
2021/06/15 01:05:01;;;;;;;6.80;4.47;;;;;;;12.65;100.00;96721.25;4967057;28;20039;-70
2021/06/15 01:07:31;;;;;;;7.50;5.25;;;;;;;12.95;100.00;96757.09;4966934;28;20035;-66
2021/06/15 01:10:13;;;;;;;7.30;4.93;;;;;;;10.73;98.79;96389.00;4966924;28;20134;-70
2021/06/15 01:13:00;;;;;;;10.55;5.85;;;;;;;13.03;98.90;96753.97;4965386;28;20415;-68
2021/06/15 01:15:45;;;;;;;6.18;5.55;;;;;;;12.79;99.65;96703.81;4981026;28;20035;-68
2021/06/15 01:18:17;;;;;;;11.18;5.30;;;;;;;12.53;98.05;96662.47;4967071;28;20030;-68
2021/06/15 01:21:07;;;;;;;8.65;5.35;;;;;;;13.00;98.32;96765.88;4981229;28;20027;-68
2021/06/15 01:23:39;;;;;;;11.88;5.72;;;;;;;12.96;98.79;96759.47;4967011;28;20838;-68
2021/06/15 01:26:23;;;;;;;6.88;4.97;;;;;;;12.90;98.57;96755.50;4964521;28;20046;-67
2021/06/15 01:28:58;;;;;;;6.70;4.90;;;;;;;13.06;96.12;96763.50;4965217;28;20053;-69
2021/06/15 01:31:42;;;;;;;6.00;4.72;;;;;;;13.10;96.63;96753.97;4966437;28;20071;-69
2021/06/15 01:34:21;;;;;;;8.48;4.40;;;;;;;13.01;97.01;96748.00;4966754;28;20047;-69
2021/06/15 01:37:05;;;;;;;6.15;3.97;;;;;;;13.02;96.41;96768.28;4966467;28;20038;-69
2021/06/15 01:39:36;;;;;;;8.27;4.00;;;;;;;12.70;95.10;96718.09;4965261;28;20574;-69
2021/06/15 01:42:26;;;;;;;5.68;4.25;;;;;;;13.02;95.68;96763.53;4965305;28;20042;-70
2021/06/15 01:45:00;;;;;;;6.40;4.90;;;;;;;12.87;95.65;96756.28;4967210;28;20122;-70
2021/06/15 01:47:26;;;;;;;;;;;;;;;12.67;97.57;96749.47;4965069;28;20568;-68
2021/06/15 01:49:58;;;;;;;5.88;4.70;;;;;;;12.40;97.85;96731.47;4966393;28;19929;-69
2021/06/15 01:52:29;;;;;;;7.32;4.43;;;;;;;12.12;98.80;96692.47;4964125;28;20073;-69
2021/06/15 01:54:58;;;;;;;4.03;3.63;;;;;;;12.43;97.71;96746.56;4966096;28;20046;-70
2021/06/15 01:57:25;;;;;;;5.05;3.90;;;;;;;12.46;97.97;96741.03;4966151;28;20041;-69
2021/06/15 01:59:55;;;;;;;7.97;4.20;;;;;;;12.43;97.31;96746.56;4965993;28;20046;-70
2021/06/15 02:02:20;;;;;;;8.90;4.00;;;;;;;12.36;97.76;96752.09;4980726;28;20039;-69
2021/06/15 02:04:49;;;;;;;9.23;4.13;;;;;;;12.33;97.77;96753.66;4966115;28;20054;-69
2021/06/15 02:07:19;;;;;;;5.88;4.20;;;;;;;12.11;96.82;96740.81;4965832;28;20070;-70
2021/06/15 02:09:49;;;;;;;8.40;3.83;;;;;;;12.31;96.57;96756.03;4965914;28;20031;-68
2021/06/15 02:12:19;;;;;;;5.60;3.47;;;;;;;12.36;97.05;96768.75;4966025;28;20042;-69
2021/06/15 02:14:45;;;;;;;6.32;3.88;;;;;;;12.35;95.54;96779.06;4965926;28;20042;-68
2021/06/15 02:17:13;;;;;;;11.90;3.70;;;;;;;12.23;95.52;96786.91;4965687;28;20433;-67
2021/06/15 02:19:39;;;;;;;6.20;3.92;;;;;;;12.10;96.68;96778.91;4965696;28;20060;-69
2021/06/15 02:22:08;;;;;;;5.90;4.60;;;;;;;12.02;98.91;96784.78;4965922;28;20057;-69
2021/06/15 02:24:46;;;;;;;5.80;4.13;;;;;;;11.46;99.74;96695.56;4965802;28;20162;-68
2021/06/15 02:27:15;;;;;;;7.25;3.97;;;;;;;11.90;99.90;96785.13;4965705;28;20101;-69
2021/06/15 02:29:41;;;;;;;5.97;4.20;;;;;;;11.98;98.54;96787.53;4965459;28;20065;-69
2021/06/15 02:32:09;;;;;;;5.38;3.95;;;;;;;11.90;98.74;96790.66;4963504;28;20528;-69
2021/06/15 02:34:37;;;;;;;5.60;4.22;;;;;;;11.95;98.98;96791.09;4964904;28;20049;-70
2021/06/15 02:37:07;;;;;;;10.35;4.10;;;;;;;11.96;98.98;96789.13;4963887;28;20041;-69
2021/06/15 02:39:34;;;;;;;4.75;4.35;;;;;;;12.00;98.82;96784.38;4965934;28;20037;-69
2021/06/15 02:42:05;;;;;;;6.90;4.15;;;;;;;11.87;98.72;96781.13;4965138;28;20047;-69
2021/06/15 02:44:36;;;;;;;9.27;4.47;;;;;;;11.38;99.29;96721.66;4965573;28;20465;-69
2021/06/15 02:47:02;;;;;;;4.55;3.65;;;;;;;10.77;98.24;96627.22;4963849;28;20042;-69
2021/06/15 02:49:30;;;;;;;6.13;4.10;;;;;;;11.51;98.01;96761.75;4965524;28;20047;-68
2021/06/15 02:52:05;;;;;;;7.55;4.43;;;;;;;11.75;98.40;96794.50;4979027;28;20047;-69
2021/06/15 02:54:34;;;;;;;6.03;3.72;;;;;;;11.52;98.21;96780.00;4963403;28;20055;-69
2021/06/15 02:57:01;;;;;;;6.90;3.42;;;;;;;11.50;99.10;96785.94;4964669;28;20041;-70
2021/06/15 02:59:27;;;;;;;9.38;3.63;;;;;;;11.45;100.00;96783.50;4965160;28;20130;-68
2021/06/15 03:01:54;;;;;;;5.75;3.95;;;;;;;10.77;100.00;96677.09;4963043;28;20514;-70
2021/06/15 03:04:20;;;;;;;8.75;3.38;;;;;;;10.93;99.96;96716.44;4964700;28;20038;-69
2021/06/15 03:06:45;;;;;;;6.20;3.30;;;;;;;11.52;100.00;96796.66;4964788;28;20508;-69
2021/06/15 03:09:12;;;;;;;4.72;3.70;;;;;;;11.63;99.61;96811.44;4965096;28;20069;-69
2021/06/15 03:11:47;;;;;;;4.45;3.53;;;;;;;11.45;99.95;96813.22;4979261;28;20437;-69
2021/06/15 03:14:22;;;;;;;10.05;4.43;;;;;;;11.49;100.00;96809.28;4963356;28;20031;-69
2021/06/15 03:16:50;;;;;;;7.50;4.20;;;;;;;11.45;100.00;96802.94;4964671;28;20039;-68
2021/06/15 03:19:23;;;;;;;9.30;5.07;;;;;;;11.85;100.00;96821.53;4964951;28;20045;-67
2021/06/15 03:22:10;;;;;;;8.85;5.10;;;;;;;11.69;100.00;96771.88;4964868;28;20073;-68
2021/06/15 03:24:42;;;;;;;5.60;4.63;;;;;;;11.86;99.69;96773.19;4965080;28;20035;-68
2021/06/15 03:27:10;;;;;;;7.00;4.40;;;;;;;12.25;98.85;96813.09;4964880;28;20046;-66
2021/06/15 03:29:41;;;;;;;6.68;3.67;;;;;;;11.84;97.42;96747.78;4962995;28;20027;-67
2021/06/15 03:32:10;;;;;;;7.38;2.97;;;;;;;12.43;96.34;96819.59;4964637;28;20138;-68
2021/06/15 03:34:50;;;;;;;4.25;2.72;;;;;;;12.04;95.79;96735.25;4964584;28;20035;-67
2021/06/15 03:37:35;;;;;;;7.60;3.33;;;;;;;12.71;94.10;96825.28;4962870;28;20073;-67
2021/06/15 03:40:02;;;;;;;3.50;3.20;;;;;;;12.59;95.82;96828.41;4964824;28;20689;-68
2021/06/15 03:42:33;;;;;;;9.85;3.42;;;;;;;12.51;96.39;96860.13;4964753;28;20058;-67
2021/06/15 03:45:01;;;;;;;4.97;3.60;;;;;;;12.60;94.80;96812.56;4979492;28;20033;-67
2021/06/15 03:47:29;;;;;;;6.28;2.97;;;;;;;12.84;93.05;96828.53;4968008;28;20123;-66
2021/06/15 03:49:56;;;;;;;6.75;3.92;;;;;;;12.90;93.38;96821.44;4966999;28;20038;-68
2021/06/15 03:52:28;;;;;;;4.70;2.70;;;;;;;12.32;92.96;96740.94;4968393;28;20066;-68
2021/06/15 03:54:55;;;;;;;2.70;2.47;;;;;;;12.95;92.26;96807.94;4967172;28;20418;-68
2021/06/15 03:57:24;;;;;;;4.13;3.17;;;;;;;12.83;92.26;96811.06;4968502;28;20043;-68
2021/06/15 03:59:51;;;;;;;7.07;2.90;;;;;;;13.07;93.74;96821.50;4967387;28;20035;-68
2021/06/15 04:02:18;;;;;;;7.40;3.10;;;;;;;13.11;92.41;96827.09;4982633;28;20038;-68
2021/06/15 04:04:47;;;;;;;4.78;3.28;;;;;;;13.20;91.14;96824.72;4968130;28;20038;-67
2021/06/15 04:07:18;;;;;;;5.93;2.60;;;;;;;13.25;89.20;96822.38;4967825;28;20093;-68
2021/06/15 04:09:47;;;;;;;10.48;3.00;;;;;;;13.28;89.49;96827.16;4966522;28;20114;-67
2021/06/15 04:12:13;;;;;;;4.50;2.75;;;;;;;13.34;88.57;96820.00;4967987;28;20049;-67
2021/06/15 04:14:43;;;;;;;6.03;2.70;;;;;;;13.36;88.91;96825.97;4968386;28;20106;-68
2021/06/15 04:17:10;;;;;;;4.45;2.90;;;;;;;13.24;90.65;96825.56;4968120;28;20039;-67
2021/06/15 04:19:45;;;;;;;7.05;3.38;;;;;;;13.23;92.03;96819.19;4968298;28;20046;-68
2021/06/15 04:22:13;;;;;;;6.75;3.08;;;;;;;13.28;91.79;96815.22;4967478;28;20038;-69
2021/06/15 04:24:47;;;;;;;5.82;3.65;;;;;;;12.96;93.37;96750.34;4982156;28;20031;-67
2021/06/15 04:27:16;;;;;;;9.35;3.47;;;;;;;13.56;91.65;96824.44;4966262;28;20069;-68
2021/06/15 04:29:43;;;;;;;5.65;2.85;;;;;;;12.79;90.99;96685.19;4982189;28;20033;-67
2021/06/15 04:32:11;;;;;;;2.85;2.47;;;;;;;13.75;90.40;96828.06;4965532;28;20042;-68
2021/06/15 04:34:41;;;;;;;4.72;2.92;;;;;;;13.63;90.23;96824.44;4966004;28;20023;-68
2021/06/15 04:37:10;;;;;;;6.75;3.30;;;;;;;13.67;91.32;96822.47;4967374;28;20832;-69
2021/06/15 04:39:42;;;;;;;8.70;3.80;;;;;;;13.83;91.20;96829.66;4967429;28;20093;-70
2021/06/15 04:42:13;;;;;;;5.30;3.25;;;;;;;13.88;89.15;96815.34;4965464;28;20133;-68
2021/06/15 04:44:43;;;;;;;4.75;2.83;;;;;;;13.82;89.57;96803.78;4967264;28;20039;-69
2021/06/15 04:47:26;;;;;;;4.47;3.33;;;;;;;13.99;89.70;96838.41;4981349;28;20193;-67
2021/06/15 04:50:00;;;;;;;6.22;4.20;;;;;;;14.01;87.80;96847.16;4967504;28;20027;-70
2021/06/15 04:52:28;;;;;;;4.38;2.90;;;;;;;14.14;86.28;96842.78;4967169;28;20125;-69
2021/06/15 04:54:56;;;;;;;4.05;2.85;;;;;;;14.14;87.36;96842.78;4982088;28;20050;-70
2021/06/15 04:57:25;;;;;;;6.07;3.00;;;;;;;14.17;88.44;96850.34;4965088;28;20039;-70
2021/06/15 04:59:54;;;;;;;4.47;2.97;;;;;;;13.72;87.08;96759.25;4967267;28;20097;-70
2021/06/15 05:02:21;;;;;;;7.45;3.63;;;;;;;14.12;89.26;96854.31;4965202;28;20082;-70
2021/06/15 05:04:51;;;;;;;6.97;4.28;;;;;;;13.92;87.70;96808.56;4967084;28;20101;-70
2021/06/15 05:07:19;;;;;;;9.10;3.58;;;;;;;14.07;87.85;96812.16;4966482;28;20039;-70
2021/06/15 05:09:48;;;;;;;5.72;3.58;;;;;;;13.74;87.84;96726.25;4967000;28;20043;-69
2021/06/15 05:12:17;;;;;;;12.85;4.95;;;;;;;13.99;85.79;96732.59;4965787;28;20083;-68
2021/06/15 05:14:43;;;;;;;7.63;4.40;;;;;;;14.88;84.07;96879.75;4967093;28;20074;-70
2021/06/15 05:17:11;;;;;;;7.97;4.60;;;;;;;15.16;84.48;96868.50;4967014;28;20478;-70
2021/06/15 05:19:39;;;;;;;5.60;3.35;;;;;;;15.31;81.62;96858.88;4966984;28;20039;-69
2021/06/15 05:22:11;;;;;;;4.18;3.65;;;;;;;15.53;80.97;96865.97;4966819;28;20497;-71
2021/06/15 05:24:49;;;;;;;6.68;3.45;;;;;;;15.18;79.03;96783.19;4966676;28;20506;-69
2021/06/15 05:27:17;;;;;;;7.35;3.58;;;;;;;15.91;78.46;96864.16;4964935;28;20039;-70
2021/06/15 05:29:43;;;;;;;5.38;3.53;;;;;;;15.89;78.47;96858.97;4967155;28;20058;-70
2021/06/15 05:32:10;;;;;;;4.13;3.58;;;;;;;16.21;77.70;96865.13;4966866;28;20549;-70
2021/06/15 05:34:35;;;;;;;5.05;3.45;;;;;;;16.20;76.82;96827.19;4965228;28;20027;-68
2021/06/15 05:37:03;;;;;;;6.53;3.20;;;;;;;16.05;76.38;96760.66;4966447;28;20511;-70
2021/06/15 05:39:29;;;;;;;6.53;3.88;;;;;;;16.87;76.55;96864.94;4966382;28;20035;-70
2021/06/15 05:41:55;;;;;;;13.73;9.25;;;;;;;16.61;75.19;96777.69;4980401;28;20097;-70
2021/06/15 05:44:20;;;;;;;34.28;30.58;;;;;;;16.83;75.60;96808.25;4966302;28;20086;-70
2021/06/15 05:46:46;;;;;;;13.18;8.10;;;;;;;16.90;74.64;96822.16;4966026;28;20074;-71
2021/06/15 05:49:11;;;;;;;11.32;7.55;;;;;;;17.16;74.51;96855.03;4964853;28;20096;-70
2021/06/15 05:51:38;;;;;;;12.68;6.05;;;;;;;17.42;74.14;96862.72;4966031;28;20137;-70
2021/06/15 05:54:04;;;;;;;9.30;5.80;;;;;;;17.52;73.57;96856.22;4965755;28;20034;-70
2021/06/15 05:56:30;;;;;;;4.53;3.50;;;;;;;17.78;71.94;96858.25;4965908;28;20414;-70
2021/06/15 05:58:55;;;;;;;4.60;2.35;;;;;;;18.04;67.43;96863.06;4963416;28;20034;-74
2021/06/15 06:01:21;;;;;;;3.50;2.97;;;;;;;17.45;67.10;96721.91;4967161;28;20045;-70
2021/06/15 06:03:55;;;;;;;3.95;2.15;;;;;;;18.27;64.28;96807.03;4966073;28;20061;-62
2021/06/15 06:09:05;;;;;;;;;;;;;;;18.54;64.33;96858.28;4965227;28;20643;-74
2021/06/15 06:11:31;;;;;;;2.67;2.38;;;;;;;18.24;65.74;96824.69;4963625;28;19965;-61
2021/06/15 06:13:57;;;;;;;8.82;2.45;;;;;;;19.08;66.09;96845.66;4965683;28;20033;-69
2021/06/15 06:16:22;;;;;;;5.88;2.72;;;;;;;19.00;65.74;96776.06;4963483;28;20030;-72
2021/06/15 06:18:48;;;;;;;2.80;2.58;;;;;;;19.20;62.11;96774.81;4965320;28;20030;-72
2021/06/15 06:21:14;;;;;;;4.60;2.03;;;;;;;19.83;59.59;96837.28;4964427;28;20047;-61
2021/06/15 06:23:40;;;;;;;4.75;1.85;;;;;;;19.58;57.29;96806.91;4964326;28;20074;-72
2021/06/15 06:26:05;;;;;;;7.20;2.00;;;;;;;19.74;56.51;96819.44;4965128;28;20138;-58
2021/06/15 06:28:31;;;;;;;5.00;2.15;;;;;;;19.97;59.46;96842.59;4964814;28;20038;-62
2021/06/15 06:30:57;;;;;;;3.67;2.72;;;;;;;20.11;58.92;96841.44;4964513;28;20045;-67
2021/06/15 06:33:22;;;;;;;5.22;3.70;;;;;;;19.84;59.87;96779.06;4965239;28;20498;-61
2021/06/15 06:35:48;;;;;;;7.13;3.30;;;;;;;20.10;62.62;96854.75;4964700;28;20066;-69
2021/06/15 06:38:13;;;;;;;6.32;3.80;;;;;;;20.04;60.63;96844.44;4980268;28;20928;-61
2021/06/15 06:40:39;;;;;;;4.38;2.85;;;;;;;19.98;59.97;96834.94;4964983;28;20562;-58
2021/06/15 06:43:04;;;;;;;6.15;4.00;;;;;;;20.05;61.03;96834.78;4964946;28;20509;-65
2021/06/15 06:45:30;;;;;;;5.95;3.78;;;;;;;20.17;59.32;96842.56;4964123;28;20129;-66
2021/06/15 06:47:55;;;;;;;6.43;3.17;;;;;;;19.64;58.18;96786.72;4965362;28;20033;-59
2021/06/15 06:50:21;;;;;;;3.90;2.83;;;;;;;19.92;59.29;96823.41;4964822;28;20113;-68
2021/06/15 06:52:47;;;;;;;3.17;2.67;;;;;;;19.95;59.40;96785.22;4964633;28;20486;-59
2021/06/15 06:55:18;;;;;;;9.77;3.22;;;;;;;19.93;61.28;96819.41;4963664;28;20153;-67
2021/06/15 06:57:44;;;;;;;3.45;2.83;;;;;;;20.32;57.91;96821.28;4963391;28;20042;-58
2021/06/15 07:00:10;;;;;;;3.88;3.28;;;;;;;20.43;56.61;96793.69;4962258;28;20437;-58
2021/06/15 07:02:35;;;;;;;4.63;3.08;;;;;;;19.58;56.23;96631.13;4963986;28;20161;-59
2021/06/15 07:05:01;;;;;;;3.13;2.80;;;;;;;20.17;57.79;96772.25;4964094;28;20238;-66
2021/06/15 07:07:26;;;;;;;5.03;2.50;;;;;;;19.07;57.80;96647.53;4963625;28;20122;-65
2021/06/15 07:09:52;;;;;;;7.15;3.08;;;;;;;19.90;57.53;96670.47;4964605;28;20143;-60
2021/06/15 07:12:18;;;;;;;4.38;3.05;;;;;;;21.13;58.47;96803.06;4964347;28;20038;-66
2021/06/15 07:14:43;;;;;;;6.75;2.95;;;;;;;21.27;56.44;96805.50;4960150;28;20038;-65
2021/06/15 07:17:09;;;;;;;6.00;3.20;;;;;;;21.25;56.73;96799.50;4945441;29;20062;-68
2021/06/15 07:19:34;;;;;;;7.00;2.55;;;;;;;21.33;55.35;96795.25;4946146;29;20114;-66
2021/06/15 07:22:00;;;;;;;6.05;3.30;;;;;;;18.52;56.49;96361.41;4948945;28;20070;-70
2021/06/15 07:24:25;;;;;;;2.90;2.70;;;;;;;21.01;52.60;96733.38;4964097;28;20045;-57
2021/06/15 07:26:51;;;;;;;3.75;2.70;;;;;;;21.57;53.67;96807.03;4963104;28;20553;-63
2021/06/15 07:29:16;;;;;;;6.57;2.70;;;;;;;21.36;54.14;96754.09;4963495;28;20077;-68
2021/06/15 07:31:42;;;;;;;3.13;2.60;;;;;;;21.85;51.73;96784.41;4963589;28;20038;-64
2021/06/15 07:34:07;;;;;;;14.43;6.65;;;;;;;21.92;52.67;96778.56;4964422;28;20121;-65
2021/06/15 07:36:33;;;;;;;4.07;2.35;;;;;;;21.88;49.68;96738.38;4963430;28;20687;-62
2021/06/15 07:38:58;;;;;;;4.55;2.50;;;;;;;22.08;52.11;96772.78;4964618;28;20034;-56
2021/06/15 07:41:24;;;;;;;4.50;2.53;;;;;;;22.10;51.29;96783.63;4961724;28;20043;-63
2021/06/15 07:43:49;;;;;;;6.05;2.47;;;;;;;22.15;51.10;96766.91;4964151;28;20093;-66
2021/06/15 07:46:15;;;;;;;7.00;2.35;;;;;;;22.17;51.75;96777.75;4963207;28;20054;-59
2021/06/15 07:48:41;;;;;;;2.33;1.75;;;;;;;22.30;51.32;96773.66;4965384;28;20468;-67
2021/06/15 07:51:07;;;;;;;7.07;3.38;;;;;;;22.45;51.37;96752.19;4963393;28;20038;-68
2021/06/15 07:53:33;;;;;;;3.72;2.80;;;;;;;23.13;48.00;96773.22;4964326;28;20512;-67
2021/06/15 07:55:58;;;;;;;3.08;2.17;;;;;;;23.32;47.39;96772.13;4963861;28;20514;-60
2021/06/15 07:58:24;;;;;;;2.47;2.28;;;;;;;23.31;47.79;96779.84;4962941;28;20027;-63
2021/06/15 08:00:53;;;;;;;3.25;2.53;;;;;;;22.23;49.27;96665.88;4963873;28;20119;-69
2021/06/15 08:03:18;;;;;;;3.42;2.20;;;;;;;23.41;48.01;96775.81;4964682;28;20465;-61
2021/06/15 08:05:44;;;;;;;3.25;2.85;;;;;;;22.64;48.16;96774.97;4964336;28;20118;-60
2021/06/15 08:08:09;;;;;;;2.95;2.00;;;;;;;22.21;47.40;96719.16;4964873;28;20037;-68
2021/06/15 08:10:35;;;;;;;2.67;2.47;;;;;;;23.23;46.79;96769.22;4964229;28;20042;-60
2021/06/15 08:13:01;;;;;;;2.10;2.00;;;;;;;22.97;44.98;96702.78;4963202;28;20050;-63
2021/06/15 08:15:27;;;;;;;3.60;2.20;;;;;;;22.60;46.24;96633.94;4961838;28;20022;-68
2021/06/15 08:17:53;;;;;;;2.47;2.08;;;;;;;23.79;44.74;96764.22;4962842;28;20042;-61
2021/06/15 08:20:19;;;;;;;3.10;2.45;;;;;;;23.68;44.87;96753.34;4962850;28;20454;-59
2021/06/15 08:22:44;;;;;;;4.10;2.20;;;;;;;23.85;44.14;96773.72;4961954;28;20422;-67
2021/06/15 08:25:10;;;;;;;3.72;2.40;;;;;;;24.00;43.94;96780.41;4962591;28;20037;-67
2021/06/15 08:27:36;;;;;;;9.02;5.93;;;;;;;24.19;44.74;96736.75;4961313;28;20043;-60
2021/06/15 08:30:07;;;;;;;4.53;2.42;;;;;;;23.65;43.68;96726.00;4962608;28;20051;-61
2021/06/15 08:32:33;;;;;;;2.50;2.08;;;;;;;22.99;46.48;96762.41;4961003;28;20071;-68
2021/06/15 08:34:58;;;;;;;3.03;2.15;;;;;;;23.71;46.40;96771.44;4980079;28;20218;-69
2021/06/15 08:37:24;;;;;;;4.03;1.80;;;;;;;23.83;44.34;96770.56;4965313;28;20057;-62
2021/06/15 08:39:49;;;;;;;2.45;2.25;;;;;;;23.23;45.08;96738.91;4965356;28;20026;-69
2021/06/15 08:42:15;;;;;;;5.80;2.20;;;;;;;22.41;45.77;96743.03;4964610;28;20049;-66
2021/06/15 08:44:42;;;;;;;3.97;2.50;;;;;;;22.67;44.58;96706.31;4965956;28;20033;-62
2021/06/15 08:47:09;;;;;;;4.57;1.80;;;;;;;23.07;43.14;96724.97;4966845;28;20034;-65
2021/06/15 08:49:35;;;;;;;4.28;1.83;;;;;;;23.14;41.67;96769.91;4965668;28;20560;-62
2021/06/15 08:52:01;;;;;;;3.35;1.80;;;;;;;23.42;41.37;96762.47;4966622;28;20043;-64
2021/06/15 08:54:29;;;;;;;2.38;2.08;;;;;;;23.25;42.45;96755.41;4966015;28;20047;-62
2021/06/15 08:56:54;;;;;;;6.72;3.55;;;;;;;22.76;43.27;96641.41;4966129;28;20068;-61
2021/06/15 08:59:26;;;;;;;3.03;2.00;;;;;;;21.02;42.54;96313.31;4964441;28;20037;-65
2021/06/15 09:02:01;;;;;;;3.30;2.53;;;;;;;23.71;42.63;96746.00;4965463;28;20141;-60
2021/06/15 09:04:27;;;;;;;2.58;2.30;;;;;;;23.45;43.65;96722.75;4962462;28;20154;-58
2021/06/15 09:06:57;;;;;;;3.22;2.00;;;;;;;23.48;41.78;96687.88;4964716;28;20569;-60
2021/06/15 09:09:36;;;;;;;2.33;2.22;;;;;;;24.40;42.07;96752.88;4964557;28;20122;-67
2021/06/15 09:12:02;;;;;;;2.42;2.33;;;;;;;24.08;41.69;96643.00;4964405;28;20068;-67
2021/06/15 09:14:38;;;;;;;2.13;1.92;;;;;;;24.78;42.01;96750.44;4979708;28;20577;-65
2021/06/15 09:17:03;;;;;;;3.15;1.83;;;;;;;23.63;39.60;96626.66;4965042;28;20089;-60
2021/06/15 09:19:37;;;;;;;1.83;1.73;;;;;;;24.39;39.74;96751.28;4964775;28;20526;-60
2021/06/15 09:22:02;;;;;;;3.10;2.15;;;;;;;24.16;39.66;96709.38;4962142;28;20058;-67
2021/06/15 09:24:32;;;;;;;2.42;1.88;;;;;;;24.79;38.76;96737.84;4965164;28;20834;-66
2021/06/15 09:27:08;;;;;;;3.80;2.05;;;;;;;24.77;39.23;96737.53;4965918;28;20050;-68
2021/06/15 09:29:44;;;;;;;2.38;2.00;;;;;;;24.28;38.81;96745.28;4966599;28;20034;-60
2021/06/15 09:32:13;;;;;;;2.83;2.60;;;;;;;24.14;39.63;96740.19;4964333;28;20067;-67
2021/06/15 09:34:50;;;;;;;1.75;1.65;;;;;;;24.01;38.99;96744.41;4966803;28;20054;-67
2021/06/15 09:37:16;;;;;;;1.95;1.85;;;;;;;24.29;38.30;96738.38;4964791;28;20125;-66
2021/06/15 09:39:42;;;;;;;2.55;2.05;;;;;;;24.34;39.71;96732.09;4966382;28;20046;-67
2021/06/15 09:42:12;;;;;;;2.28;2.17;;;;;;;24.24;40.33;96733.31;4965927;28;20079;-67
2021/06/15 09:44:38;;;;;;;3.47;1.90;;;;;;;24.35;39.54;96739.31;4997297;28;20576;-67
2021/06/15 09:47:06;;;;;;;2.08;1.90;;;;;;;23.40;41.47;96736.69;4966215;28;20117;-60
2021/06/15 09:49:44;;;;;;;2.95;1.80;;;;;;;23.63;40.35;96702.25;4966144;28;20034;-59
2021/06/15 09:52:13;;;;;;;2.28;1.73;;;;;;;24.00;40.03;96740.78;4964597;28;20031;-61
2021/06/15 09:54:41;;;;;;;5.63;1.45;;;;;;;24.11;38.86;96743.97;4966295;28;20073;-67
2021/06/15 09:57:12;;;;;;;2.47;1.73;;;;;;;23.67;39.01;96688.75;4965791;28;20039;-68
2021/06/15 09:59:57;;;;;;;2.47;1.90;;;;;;;24.01;38.93;96742.38;4965885;28;20544;-61
2021/06/15 10:02:23;;;;;;;2.75;2.20;;;;;;;24.03;38.19;96739.84;4965436;28;20524;-60
2021/06/15 10:04:50;;;;;;;2.75;2.28;;;;;;;24.37;39.20;96742.47;4965910;28;20046;-60
2021/06/15 10:07:25;;;;;;;4.80;2.05;;;;;;;24.46;38.08;96748.16;4965853;28;20038;-61
2021/06/15 10:09:51;;;;;;;2.10;2.00;;;;;;;24.32;38.66;96751.59;4965837;28;20034;-65
2021/06/15 10:12:17;;;;;;;2.55;2.35;;;;;;;23.97;38.18;96696.44;4965919;28;20042;-67
2021/06/15 10:14:43;;;;;;;2.88;2.25;;;;;;;23.94;38.96;96736.97;4976586;28;20042;-62
2021/06/15 10:17:11;;;;;;;3.60;3.00;;;;;;;22.47;37.40;96449.69;4966293;28;20038;-60
2021/06/15 10:19:39;;;;;;;2.50;2.30;;;;;;;24.10;36.76;96745.22;4964534;28;20042;-64
2021/06/15 10:22:06;;;;;;;2.20;2.00;;;;;;;24.33;37.05;96747.50;4965177;28;20125;-67
2021/06/15 10:24:32;;;;;;;1.75;1.65;;;;;;;24.16;36.08;96698.06;4965297;28;20639;-59
2021/06/15 10:26:58;;;;;;;3.60;1.73;;;;;;;22.30;38.42;96355.22;4965452;28;20030;-65
2021/06/15 10:29:25;;;;;;;2.65;1.58;;;;;;;24.97;37.28;96729.34;4964423;28;20414;-65
2021/06/15 10:31:52;;;;;;;2.10;1.90;;;;;;;22.56;36.47;96300.13;4965326;28;20070;-66
2021/06/15 10:34:57;;;;;;;1.88;1.77;;;;;;;25.22;35.82;96734.69;4964444;28;20034;-63
2021/06/15 10:37:32;;;;;;;1.90;1.80;;;;;;;25.35;34.78;96725.25;4964721;28;20039;-61
2021/06/15 10:40:19;;;;;;;1.70;1.60;;;;;;;24.77;34.32;96683.69;4964841;28;20133;-66
2021/06/15 10:43:09;;;;;;;2.00;1.90;;;;;;;25.34;34.44;96726.50;4966430;28;20055;-62
2021/06/15 10:45:35;;;;;;;2.30;1.90;;;;;;;25.37;33.86;96722.72;4994310;28;20485;-61
2021/06/15 10:48:06;;;;;;;2.28;1.90;;;;;;;24.50;35.12;96719.69;4965382;28;20049;-61
2021/06/15 10:50:41;;;;;;;2.80;1.40;;;;;;;22.70;36.62;96569.84;4964820;28;20069;-67
2021/06/15 10:53:09;;;;;;;4.15;1.60;;;;;;;24.32;35.54;96723.28;4982918;28;20030;-63
2021/06/15 10:55:41;;;;;;;1.70;1.60;;;;;;;24.57;35.46;96714.50;4965395;28;20066;-63
2021/06/15 10:58:06;;;;;;;2.25;1.85;;;;;;;24.87;34.47;96719.28;4963506;28;20518;-60
2021/06/15 11:00:45;;;;;;;2.63;1.65;;;;;;;24.88;35.41;96722.91;4964543;28;20037;-62
2021/06/15 11:03:17;;;;;;;2.00;1.90;;;;;;;24.59;34.80;96709.16;4964974;28;20046;-60
2021/06/15 11:05:52;;;;;;;1.92;1.70;;;;;;;24.30;35.76;96618.19;4963731;28;20054;-62
2021/06/15 11:08:23;;;;;;;1.98;1.60;;;;;;;24.23;36.34;96714.78;4972880;28;20038;-63
2021/06/15 11:11:05;;;;;;;2.33;2.13;;;;;;;22.74;37.96;96564.84;4964101;28;20037;-60
2021/06/15 11:13:47;;;;;;;8.13;3.97;;;;;;;24.08;37.67;96713.78;4963874;28;20039;-57
2021/06/15 11:16:27;;;;;;;3.95;1.63;;;;;;;23.40;38.91;96717.69;4963987;28;20514;-65
2021/06/15 11:19:08;;;;;;;1.67;1.58;;;;;;;22.20;39.66;96712.75;4963731;28;20035;-61
2021/06/15 11:21:49;;;;;;;1.20;1.10;;;;;;;20.92;42.46;96719.16;4962005;28;20488;-59
2021/06/15 11:24:30;;;;;;;1.70;1.58;;;;;;;21.02;42.83;96722.91;4955288;28;20035;-68
2021/06/15 11:27:00;;;;;;;3.08;1.60;;;;;;;20.92;44.48;96716.31;4964154;28;20049;-58
2021/06/15 11:29:35;;;;;;;2.03;1.45;;;;;;;21.32;43.25;96711.94;4964893;28;20937;-58
2021/06/15 11:32:19;;;;;;;2.88;2.00;;;;;;;21.91;44.19;96714.91;4964263;28;20410;-60
2021/06/15 11:34:53;;;;;;;1.88;1.63;;;;;;;21.46;46.15;96708.69;4968941;28;20073;-66
2021/06/15 11:37:23;;;;;;;4.50;3.20;;;;;;;21.27;45.30;96706.88;4962571;28;20462;-65
2021/06/15 11:39:51;;;;;;;4.03;2.70;;;;;;;21.39;46.41;96708.91;4964277;28;20534;-56
2021/06/15 11:42:25;;;;;;;3.08;2.78;;;;;;;21.98;43.62;96711.06;4963972;28;20038;-57
2021/06/15 11:45:18;;;;;;;1.45;1.30;;;;;;;22.52;39.44;96705.22;4963885;28;20485;-58
2021/06/15 11:47:55;;;;;;;1.70;1.60;;;;;;;23.45;39.02;96705.78;4962958;28;20047;-58